Time;durP1;ratioP1;P1;durP2;ratioP2;P2;SDS_P1;SDS_P2;PMS_P1;PMS_P2;Temp;Humidity;BMP_temperature;BMP_pressure;BME280_temperature;BME280_humidity;BME280_pressure;Samples;Min_cycle;Max_cycle;Signal;HPM_P1;HPM_P2
2021/12/04 00:09:51;;;;;;;5.63;3.23;;;5.10;86.50;;;;;;20997948;28;20226;-64
2021/12/04 00:19:53;;;;;;;6.10;3.60;;;5.10;88.10;;;;;;20996856;28;20702;-64
2021/12/04 00:29:56;;;;;;;4.97;3.63;;;5.20;89.00;;;;;;20996541;28;20204;-64
2021/12/04 00:50:18;;;;;;;5.97;3.87;;;5.20;90.40;;;;;;20995881;28;20627;-65
2021/12/04 01:00:21;;;;;;;5.57;3.93;;;5.10;90.60;;;;;;20995114;28;20696;-64
2021/12/04 01:10:22;;;;;;;7.87;4.47;;;5.10;91.10;;;;;;20994804;28;20207;-67
2021/12/04 01:20:24;;;;;;;7.03;4.13;;;5.10;91.20;;;;;;20922036;28;20236;-70
2021/12/04 01:30:26;;;;;;;8.27;4.13;;;5.10;91.50;;;;;;20923599;28;20286;-69
2021/12/04 01:40:27;;;;;;;7.80;4.73;;;5.00;91.50;;;;;;20926713;28;20272;-68
2021/12/04 01:50:31;;;;;;;7.50;4.80;;;5.00;91.90;;;;;;20926388;28;20239;-63
2021/12/04 02:00:37;;;;;;;6.77;5.00;;;5.00;91.80;;;;;;20925293;28;20243;-66
2021/12/04 02:10:39;;;;;;;8.77;5.80;;;5.00;92.20;;;;;;20924660;28;20577;-63
2021/12/04 02:20:41;;;;;;;7.53;5.80;;;5.00;92.40;;;;;;20924129;28;20386;-63
2021/12/04 02:30:44;;;;;;;8.30;5.93;;;4.90;92.70;;;;;;20922891;28;20208;-64
2021/12/04 02:40:46;;;;;;;11.57;6.07;;;4.90;92.80;;;;;;20921408;28;20235;-63
2021/12/04 02:50:48;;;;;;;9.20;6.10;;;4.90;93.10;;;;;;20921633;28;20297;-64
2021/12/04 03:00:50;;;;;;;10.63;6.60;;;4.80;93.00;;;;;;20920770;28;20240;-64
2021/12/04 03:10:53;;;;;;;11.37;6.30;;;4.80;93.40;;;;;;20919933;28;20207;-64
2021/12/04 03:20:56;;;;;;;9.20;6.33;;;4.80;93.60;;;;;;20916399;28;20699;-63
2021/12/04 03:31:05;;;;;;;9.87;6.07;;;4.70;93.30;;;;;;20918157;28;20259;-69
2021/12/04 03:41:07;;;;;;;9.17;6.50;;;4.60;93.50;;;;;;20917473;28;20236;-69
2021/12/04 03:51:10;;;;;;;9.23;6.57;;;4.60;93.80;;;;;;20916099;28;20235;-64
2021/12/04 04:01:11;;;;;;;8.63;6.30;;;4.70;94.00;;;;;;20914455;28;20285;-63
2021/12/04 04:11:13;;;;;;;9.33;5.93;;;4.60;94.00;;;;;;20915170;28;20239;-63
2021/12/04 04:21:15;;;;;;;8.30;5.73;;;4.70;94.20;;;;;;20914823;28;20698;-64
2021/12/04 04:31:17;;;;;;;7.60;5.33;;;4.60;94.00;;;;;;20913793;28;20204;-63
2021/12/04 05:22:19;;;;;;;9.13;6.57;;;4.50;94.70;;;;;;20908763;28;20243;-63
2021/12/04 05:32:20;;;;;;;8.63;6.57;;;4.50;94.40;;;;;;20911452;28;20209;-64
2021/12/04 05:42:22;;;;;;;9.97;7.10;;;4.50;94.80;;;;;;20910629;28;20258;-64
2021/12/04 06:02:31;;;;;;;10.90;9.73;;;4.50;94.90;;;;;;20908348;28;20465;-64
2021/12/04 06:12:33;;;;;;;11.83;7.50;;;4.80;95.20;;;;;;20913738;28;20262;-63
2021/12/04 06:22:38;;;;;;;9.83;7.40;;;4.50;94.90;;;;;;20924048;28;20622;-64
2021/12/04 06:32:40;;;;;;;12.17;8.73;;;4.60;95.20;;;;;;20923480;28;20212;-63
2021/12/04 06:42:43;;;;;;;11.93;8.23;;;4.60;95.00;;;;;;20922322;28;20632;-67
2021/12/04 06:52:47;;;;;;;12.67;8.77;;;4.60;95.10;;;;;;20921519;28;20236;-72
2021/12/04 07:02:49;;;;;;;14.60;10.17;;;4.60;95.00;;;;;;20921106;28;20232;-66
2021/12/04 07:12:51;;;;;;;16.20;12.80;;;4.60;95.10;;;;;;20960784;28;20441;-76
2021/12/04 07:22:53;;;;;;;14.07;10.47;;;4.70;95.50;;;;;;20911249;28;20239;-76
2021/12/04 07:32:55;;;;;;;18.93;11.00;;;4.60;95.50;;;;;;20918395;28;20266;-71
2021/12/04 07:42:57;;;;;;;16.43;10.47;;;4.70;95.60;;;;;;20917390;28;20627;-72
2021/12/04 07:52:59;;;;;;;23.43;11.97;;;5.00;95.50;;;;;;20932792;28;20731;-70
2021/12/04 08:03:01;;;;;;;20.10;12.77;;;4.70;95.60;;;;;;20998496;28;20235;-70
2021/12/04 08:13:04;;;;;;;18.23;12.30;;;4.90;95.50;;;;;;20925922;28;20667;-72
2021/12/04 08:23:06;;;;;;;20.80;13.27;;;4.90;95.80;;;;;;20959646;28;20223;-66
2021/12/04 08:33:13;;;;;;;22.47;12.67;;;4.90;95.90;;;;;;20996200;28;20256;-63
2021/12/04 08:43:15;;;;;;;19.53;12.37;;;5.00;95.80;;;;;;20995954;28;20636;-63
2021/12/04 08:53:17;;;;;;;19.93;12.07;;;5.10;96.20;;;;;;20977583;28;20652;-63
2021/12/04 09:03:32;;;;;;;17.23;11.40;;;5.20;96.00;;;;;;20993562;28;20280;-65
2021/12/04 09:13:35;;;;;;;19.87;12.97;;;5.30;96.10;;;;;;20994542;28;20203;-65
2021/12/04 09:23:41;;;;;;;17.57;11.23;;;5.30;96.10;;;;;;20994401;28;20231;-63
2021/12/04 09:34:33;;;;;;;17.17;10.97;;;5.30;96.50;;;;;;20994558;28;20214;-63
2021/12/04 10:35:27;;;;;;;15.70;10.63;;;5.70;96.60;;;;;;21006328;28;20216;-64
2021/12/04 10:45:35;;;;;;;16.47;10.90;;;5.70;96.60;;;;;;20966609;28;20259;-77
2021/12/04 11:06:32;;;;;;;16.03;11.00;;;5.80;96.50;;;;;;21002839;28;20239;-63
2021/12/04 11:27:46;;;;;;;15.67;10.93;;;5.90;96.90;;;;;;20712549;28;20250;-80
2021/12/04 11:47:38;;;;;;;15.90;11.63;;;6.00;97.00;;;;;;21000169;28;20720;-73
2021/12/04 11:57:41;;;;;;;17.90;14.27;;;6.10;97.20;;;;;;20998568;28;20941;-78
2021/12/04 12:07:54;;;;;;;19.92;16.13;;;6.20;97.60;;;;;;20987578;28;21013;-71
2021/12/04 12:18:09;;;;;;;23.20;11.43;;;6.20;97.50;;;;;;20928182;28;20200;-82
2021/12/04 12:38:42;;;;;;;16.73;11.10;;;6.20;97.70;;;;;;20994778;28;20204;-76
2021/12/04 12:57:35;;;;;;;15.80;10.80;;;6.20;97.50;;;;;;21038807;28;20513;-75
2021/12/04 13:18:16;;;;;;;13.50;10.20;;;6.20;97.90;;;;;;20982334;28;20259;-73
2021/12/04 13:28:20;;;;;;;14.93;9.90;;;6.30;97.70;;;;;;20981381;28;20224;-76
2021/12/04 13:38:25;;;;;;;13.80;10.27;;;6.30;97.90;;;;;;20977969;28;20613;-72
2021/12/04 13:48:28;;;;;;;12.67;9.73;;;6.30;97.90;;;;;;20982769;28;20242;-71
2021/12/04 13:58:31;;;;;;;11.43;8.40;;;6.20;98.00;;;;;;21060405;28;20318;-68
2021/12/04 14:08:33;;;;;;;12.23;8.83;;;6.20;98.10;;;;;;21007413;28;20244;-66
2021/12/04 14:18:36;;;;;;;11.30;8.67;;;6.20;98.30;;;;;;21006205;28;20213;-61
2021/12/04 14:28:39;;;;;;;12.10;9.00;;;6.30;98.10;;;;;;21004896;28;20231;-64
2021/12/04 14:38:44;;;;;;;13.47;9.50;;;6.20;98.20;;;;;;21004313;28;20220;-62
2021/12/04 14:48:51;;;;;;;11.13;8.33;;;6.30;98.60;;;;;;21003721;28;20286;-69
2021/12/04 14:58:53;;;;;;;11.03;8.10;;;6.30;98.40;;;;;;21002798;28;20257;-69
2021/12/04 15:09:02;;;;;;;10.10;7.90;;;6.40;98.60;;;;;;21001969;28;20293;-66
2021/12/04 15:19:29;;;;;;;23.63;14.23;;;6.40;98.80;;;;;;21000801;28;20736;-68
2021/12/04 15:29:33;;;;;;;18.97;11.73;;;6.30;98.80;;;;;;21000278;28;20231;-70
2021/12/04 15:39:47;;;;;;;18.07;12.27;;;5.80;98.70;;;;;;20992338;28;20631;-67
2021/12/04 16:00:15;;;;;;;12.43;8.30;;;5.70;98.90;;;;;;20997831;28;20214;-63
2021/12/04 16:10:21;;;;;;;11.30;8.67;;;5.90;99.20;;;;;;20997141;28;20235;-64
2021/12/04 16:20:25;;;;;;;17.67;11.57;;;5.90;99.40;;;;;;20996618;28;20235;-70
2021/12/04 16:30:32;;;;;;;13.60;9.83;;;5.80;99.20;;;;;;20995967;28;20228;-65
2021/12/04 16:40:37;;;;;;;15.27;10.17;;;6.10;99.20;;;;;;20995607;28;20349;-68
2021/12/04 17:00:52;;;;;;;14.83;8.57;;;6.10;99.20;;;;;;20995360;28;20211;-66
2021/12/04 17:10:54;;;;;;;9.87;7.57;;;6.10;99.20;;;;;;20994090;28;20715;-69
2021/12/04 17:20:57;;;;;;;9.87;6.90;;;6.10;99.50;;;;;;20994327;28;20207;-69
2021/12/04 17:30:59;;;;;;;10.13;7.60;;;6.00;99.40;;;;;;20994040;28;20563;-69
2021/12/04 17:41:00;;;;;;;13.43;8.97;;;6.10;99.40;;;;;;20995997;28;20716;-74
2021/12/04 17:51:03;;;;;;;12.97;9.00;;;6.00;99.20;;;;;;21006305;28;20243;-71
2021/12/04 18:01:08;;;;;;;17.23;11.80;;;5.90;99.40;;;;;;21008420;28;20211;-73
2021/12/04 18:11:14;;;;;;;20.07;12.57;;;5.80;99.30;;;;;;21006448;28;20669;-67
2021/12/04 18:21:16;;;;;;;17.30;11.30;;;5.80;99.30;;;;;;21006340;28;20203;-64
2021/12/04 18:31:21;;;;;;;19.13;11.50;;;5.80;99.60;;;;;;21005862;28;20329;-64
2021/12/04 18:41:23;;;;;;;17.10;10.20;;;5.70;99.70;;;;;;21005496;28;20553;-63
2021/12/04 18:51:27;;;;;;;5.33;3.80;;;6.00;99.90;;;;;;21003982;28;20236;-71
2021/12/04 19:01:29;;;;;;;9.10;5.43;;;6.00;99.90;;;;;;21003171;28;20211;-68
2021/12/04 19:11:31;;;;;;;5.50;4.00;;;6.30;99.90;;;;;;20980804;28;20311;-67
2021/12/04 19:21:33;;;;;;;7.67;4.40;;;6.40;99.90;;;;;;20924031;28;20249;-73
2021/12/04 19:31:37;;;;;;;4.37;3.40;;;6.50;99.90;;;;;;21000521;28;20281;-69
2021/12/04 19:52:06;;;;;;;5.37;3.80;;;6.70;99.90;;;;;;20998560;28;20270;-70
2021/12/04 21:02:43;;;;;;;2.73;2.33;;;6.90;98.50;;;;;;21010330;28;20846;-66
2021/12/04 21:13:00;;;;;;;4.90;2.10;;;6.80;98.10;;;;;;21065115;28;20209;-65
2021/12/04 21:49:15;;;;;;;1.93;1.70;;;7.00;97.70;;;;;;21006825;28;20296;-71
2021/12/04 21:54:17;;;;;;;1.80;1.50;;;7.00;97.30;;;;;;21006384;28;20291;-71
2021/12/04 22:56:19;;;;;;;6.00;1.90;;;6.40;94.70;;;;;;21084980;28;20205;-73
2021/12/04 23:17:04;;;;;;;5.60;1.50;;;6.30;94.20;;;;;;21083616;28;20202;-72
2021/12/04 23:37:40;;;;;;;3.53;1.50;;;6.20;93.70;;;;;;21082275;28;20223;-72
2021/12/04 23:48:16;;;;;;;8.50;2.40;;;6.20;93.80;;;;;;21083410;28;20693;-73
